Time;durP1;ratioP1;P1;durP2;ratioP2;P2;SDS_P1;SDS_P2;PMS_P1;PMS_P2;Temp;Humidity;BMP_temperature;BMP_pressure;BME280_temperature;BME280_humidity;BME280_pressure;Samples;Min_cycle;Max_cycle;Signal;HPM_P1;HPM_P2
2022/10/02 00:01:54;;;;;;;10.48;8.27;;;;;;;22.27;68.49;100708.13;5055469;28;20029;-81
2022/10/02 00:04:28;;;;;;;12.48;8.10;;;;;;;22.29;68.32;100709.91;5001881;28;20129;-81
2022/10/02 00:06:57;;;;;;;9.82;7.72;;;;;;;22.29;68.65;100714.34;5055869;28;20036;-81
2022/10/02 00:09:35;;;;;;;8.82;7.63;;;;;;;22.29;68.47;100719.66;5055851;28;20043;-81
2022/10/02 00:12:01;;;;;;;11.50;7.65;;;;;;;22.27;68.44;100730.28;5055340;28;20020;-81
2022/10/02 00:14:30;;;;;;;12.20;8.13;;;;;;;22.26;68.22;100722.28;5073301;28;20499;-81
2022/10/02 00:16:57;;;;;;;8.30;7.38;;;;;;;22.10;68.22;100684.06;5055723;28;20024;-81
2022/10/02 00:19:23;;;;;;;8.82;7.75;;;;;;;22.24;68.39;100706.31;5055471;28;20099;-81
2022/10/02 00:22:31;;;;;;;10.30;7.80;;;;;;;22.25;68.18;100702.78;5055648;28;20056;-81
2022/10/02 00:25:04;;;;;;;8.63;7.72;;;;;;;22.05;67.96;100656.53;5060372;28;20034;-80
2022/10/02 00:27:45;;;;;;;11.50;8.32;;;;;;;22.28;67.83;100692.13;5073508;28;20043;-81
2022/10/02 00:30:13;;;;;;;9.90;7.72;;;;;;;22.28;67.93;100685.94;5053302;28;20110;-81
2022/10/02 00:32:51;;;;;;;9.57;7.70;;;;;;;22.28;68.10;100692.13;5048378;28;20024;-81
2022/10/02 00:35:26;;;;;;;10.60;7.60;;;;;;;22.26;67.92;100698.34;5064753;28;20028;-81
2022/10/02 00:38:04;;;;;;;9.88;7.50;;;;;;;22.29;67.51;100709.91;5070231;28;20646;-81
2022/10/02 00:40:39;;;;;;;10.02;7.50;;;;;;;22.27;67.28;100721.41;5070765;28;20028;-81
2022/10/02 00:43:23;;;;;;;11.00;7.70;;;;;;;22.26;67.68;100693.03;5071581;28;20413;-81
2022/10/02 00:46:01;;;;;;;8.70;7.80;;;;;;;22.30;67.53;100692.16;5072479;28;20017;-81
2022/10/02 00:48:33;;;;;;;9.50;7.60;;;;;;;22.29;67.32;100707.22;5067012;28;20016;-81
2022/10/02 00:51:12;;;;;;;9.07;7.30;;;;;;;22.27;67.60;100705.47;5072775;28;20028;-81
2022/10/02 00:54:03;;;;;;;8.52;7.60;;;;;;;22.19;67.63;100697.38;5068025;28;20028;-81
2022/10/02 00:56:38;;;;;;;9.38;7.45;;;;;;;22.27;67.20;100708.13;5068762;28;20485;-81
2022/10/02 00:59:54;;;;;;;9.90;7.93;;;;;;;22.24;67.25;100700.97;5061188;28;20028;-81
2022/10/02 01:02:25;;;;;;;9.77;7.50;;;;;;;22.22;67.54;100709.81;5009421;28;20025;-81
2022/10/02 01:04:51;;;;;;;9.63;7.70;;;;;;;22.27;67.21;100724.97;5009426;28;20037;-81
2022/10/02 01:07:17;;;;;;;8.90;7.45;;;;;;;22.21;67.31;100719.56;5031705;28;20037;-80
2022/10/02 01:09:42;;;;;;;;;;;;;;;22.26;66.94;100724.94;5045621;28;20063;-81
2022/10/02 01:12:09;;;;;;;8.63;7.57;;;;;;;22.26;66.51;100714.31;5066928;28;19909;-81
2022/10/02 01:14:39;;;;;;;10.60;8.13;;;;;;;22.26;66.86;100724.94;5054778;28;20031;-81
2022/10/02 01:17:26;;;;;;;11.10;7.97;;;;;;;22.24;66.84;100729.38;5071986;28;20055;-80
2022/10/02 01:19:52;;;;;;;9.20;7.32;;;;;;;22.21;66.64;100719.56;5072004;28;20024;-81
2022/10/02 01:22:33;;;;;;;13.60;7.97;;;;;;;22.21;66.83;100727.53;5072251;28;20016;-81
2022/10/02 01:25:04;;;;;;;11.13;7.55;;;;;;;22.20;66.73;100725.75;5071471;28;20025;-81
2022/10/02 01:27:30;;;;;;;11.95;7.95;;;;;;;22.11;66.40;100723.94;5072053;28;20024;-81
2022/10/02 01:29:59;;;;;;;11.60;7.70;;;;;;;22.19;66.57;100731.09;5050909;28;20432;-81
2022/10/02 01:32:28;;;;;;;10.05;7.70;;;;;;;22.17;66.46;100720.44;5050860;28;20029;-81
2022/10/02 01:34:55;;;;;;;10.70;7.97;;;;;;;22.20;66.46;100716.88;5038510;28;20096;-81
2022/10/02 01:37:29;;;;;;;11.45;7.50;;;;;;;22.18;66.36;100730.16;5050864;28;20036;-81
2022/10/02 01:40:00;;;;;;;10.23;7.90;;;;;;;22.15;66.03;100736.38;5038408;28;20036;-82
2022/10/02 01:42:26;;;;;;;8.52;7.35;;;;;;;22.18;65.68;100751.44;5052406;28;20094;-81
2022/10/02 01:44:52;;;;;;;8.95;7.50;;;;;;;22.14;65.85;100737.25;5053080;28;20441;-81
2022/10/02 01:47:30;;;;;;;9.18;7.38;;;;;;;22.14;66.12;100741.72;5033952;28;20037;-81
2022/10/02 01:50:05;;;;;;;11.73;7.40;;;;;;;22.18;66.06;100746.13;5050512;28;20029;-81
2022/10/02 01:52:42;;;;;;;8.95;7.10;;;;;;;22.11;65.85;100733.69;5051811;28;20029;-81
2022/10/02 01:55:13;;;;;;;7.75;6.97;;;;;;;22.13;65.65;100722.16;5051865;28;20021;-82
2022/10/02 01:57:48;;;;;;;7.95;6.88;;;;;;;22.18;65.32;100700.91;5051778;28;20029;-81
2022/10/02 02:00:21;;;;;;;9.20;6.80;;;;;;;22.12;65.17;100695.59;5050246;28;20031;-81
2022/10/02 02:03:15;;;;;;;7.93;6.25;;;;;;;22.09;65.29;100669.84;5051579;28;20033;-81
2022/10/02 02:05:47;;;;;;;8.32;6.60;;;;;;;22.12;65.81;100648.59;5039004;28;20489;-81
2022/10/02 02:08:21;;;;;;;9.55;6.85;;;;;;;22.10;66.07;100633.53;5051600;28;20578;-82
2022/10/02 02:11:04;;;;;;;9.93;7.30;;;;;;;22.11;66.23;100643.25;5050060;28;20413;-82
2022/10/02 02:13:39;;;;;;;9.93;6.95;;;;;;;22.13;66.30;100638.84;5051576;28;20029;-82
2022/10/02 02:16:17;;;;;;;10.70;7.40;;;;;;;22.11;66.49;100633.50;5050205;28;20562;-82
2022/10/02 02:18:50;;;;;;;10.80;7.10;;;;;;;22.03;66.72;100607.75;5037770;28;20116;-82
2022/10/02 02:21:21;;;;;;;10.07;7.13;;;;;;;22.05;66.79;100609.53;5038300;28;20086;-82
2022/10/02 02:23:47;;;;;;;8.77;6.68;;;;;;;22.09;66.64;100607.78;5050325;28;20025;-83
2022/10/02 02:26:17;;;;;;;9.43;7.07;;;;;;;22.04;66.55;100586.50;5049887;28;20033;-83
2022/10/02 02:28:47;;;;;;;9.07;7.07;;;;;;;22.10;66.80;100575.03;5051184;28;20079;-82
2022/10/02 02:31:16;;;;;;;11.38;7.03;;;;;;;22.11;66.64;100574.13;5024472;28;20513;-82
2022/10/02 02:33:45;;;;;;;9.15;7.07;;;;;;;22.10;66.86;100567.91;5040673;28;20056;-82
2022/10/02 02:36:13;;;;;;;7.97;6.85;;;;;;;22.18;66.68;100565.25;5047234;28;20048;-82
2022/10/02 02:38:43;;;;;;;8.70;6.88;;;;;;;22.14;67.02;100553.75;5050115;28;20028;-82
2022/10/02 02:41:12;;;;;;;6.68;5.97;;;;;;;22.14;67.00;100547.56;5049942;28;20035;-81
2022/10/02 02:43:53;;;;;;;10.18;6.65;;;;;;;22.17;66.87;100542.22;5049967;28;20116;-82
2022/10/02 02:46:29;;;;;;;8.32;6.63;;;;;;;22.12;66.96;100551.97;5038494;28;20096;-81
2022/10/02 02:48:59;;;;;;;11.15;7.32;;;;;;;22.17;66.86;100568.81;5049838;28;20024;-82
2022/10/02 02:51:38;;;;;;;7.40;6.60;;;;;;;22.14;67.15;100577.69;5049781;28;20028;-81
2022/10/02 02:54:23;;;;;;;7.38;6.43;;;;;;;22.15;66.91;100598.06;5051178;28;20077;-81
2022/10/02 02:56:50;;;;;;;8.57;6.15;;;;;;;22.10;66.92;100606.94;5049532;28;20048;-81
2022/10/02 02:59:17;;;;;;;7.82;6.60;;;;;;;22.09;66.71;100626.41;5051176;28;20028;-81
2022/10/02 03:01:42;;;;;;;8.82;6.07;;;;;;;22.10;67.01;100646.81;5049454;28;20033;-81
2022/10/02 03:04:11;;;;;;;9.20;6.55;;;;;;;22.13;66.90;100663.66;5050957;28;20416;-81
2022/10/02 03:06:40;;;;;;;8.50;6.15;;;;;;;22.10;66.85;100653.03;5049754;28;20021;-81
2022/10/02 03:09:10;;;;;;;7.18;5.78;;;;;;;22.08;66.97;100654.78;5049034;28;20048;-82
2022/10/02 03:12:10;;;;;;;8.48;6.00;;;;;;;22.11;67.14;100672.53;5050608;28;20529;-82
2022/10/02 03:14:47;;;;;;;6.78;5.75;;;;;;;22.16;66.85;100677.00;5050037;28;20021;-81
2022/10/02 03:17:18;;;;;;;7.13;5.65;;;;;;;22.11;66.96;100689.34;5041106;28;20036;-81
2022/10/02 03:20:20;;;;;;;6.88;5.50;;;;;;;22.07;66.88;100698.19;5042543;28;20506;-81
2022/10/02 03:22:48;;;;;;;9.18;5.28;;;;;;;22.10;67.08;100700.88;5049917;28;20021;-81
2022/10/02 03:25:21;;;;;;;7.45;4.82;;;;;;;22.10;67.20;100702.66;5056273;28;20077;-82
2022/10/02 03:27:50;;;;;;;7.90;5.25;;;;;;;22.10;67.08;100711.53;5051661;28;20021;-82
2022/10/02 03:30:20;;;;;;;7.60;4.57;;;;;;;22.10;67.01;100708.00;5053399;28;20041;-81
2022/10/02 03:32:47;;;;;;;5.95;4.70;;;;;;;22.07;67.03;100711.50;5066110;28;20162;-81
2022/10/02 03:35:14;;;;;;;6.85;4.88;;;;;;;22.05;67.15;100707.94;5042619;28;20057;-81
2022/10/02 03:37:46;;;;;;;7.00;4.38;;;;;;;22.03;67.18;100725.66;5070045;28;20024;-81
2022/10/02 03:40:11;;;;;;;7.18;4.60;;;;;;;22.13;67.07;100748.78;5043133;28;20028;-82
2022/10/02 03:42:37;;;;;;;4.93;4.25;;;;;;;22.14;66.83;100760.31;5070343;28;20042;-84
2022/10/02 03:45:04;;;;;;;6.43;4.55;;;;;;;21.98;66.81;100727.41;5070555;28;20035;-83
2022/10/02 03:47:29;;;;;;;6.38;4.60;;;;;;;22.00;67.32;100725.66;5071648;28;20505;-82
2022/10/02 03:49:55;;;;;;;8.57;4.28;;;;;;;22.11;67.33;100742.53;5073709;28;20037;-82
2022/10/02 03:52:21;;;;;;;;;;;;;;;22.15;67.22;100744.34;5074598;28;20063;-82
2022/10/02 03:54:48;;;;;;;9.13;4.53;;;;;;;22.10;67.46;100727.50;5073540;28;19958;-82
2022/10/02 03:57:20;;;;;;;6.00;4.53;;;;;;;22.03;67.50;100716.78;5057841;28;20028;-82
2022/10/02 03:59:53;;;;;;;7.43;4.28;;;;;;;22.10;67.52;100734.59;5073390;28;20413;-82
2022/10/02 04:03:10;;;;;;;7.50;4.20;;;;;;;22.12;67.51;100743.47;5057680;28;20024;-83
2022/10/02 04:05:52;;;;;;;5.85;4.57;;;;;;;22.11;67.33;100761.16;4975985;28;20026;-83
2022/10/02 04:08:29;;;;;;;8.70;5.10;;;;;;;22.10;67.48;100758.53;4976239;28;20030;-82
2022/10/02 04:11:06;;;;;;;8.00;4.50;;;;;;;22.09;67.66;100748.75;5040207;28;20045;-83
2022/10/02 04:13:59;;;;;;;6.53;4.43;;;;;;;22.09;67.72;100756.72;5073604;28;20029;-83
2022/10/02 04:16:36;;;;;;;5.88;4.55;;;;;;;22.02;67.85;100757.56;5044746;28;20024;-82
2022/10/02 04:19:10;;;;;;;9.10;4.35;;;;;;;22.08;67.85;100777.13;5055387;28;20260;-82
2022/10/02 04:22:02;;;;;;;5.95;4.00;;;;;;;22.12;67.41;100794.88;5072577;28;20489;-82
2022/10/02 04:24:31;;;;;;;4.28;3.80;;;;;;;22.14;67.12;100803.75;5050517;28;20037;-82
2022/10/02 04:27:05;;;;;;;5.10;4.38;;;;;;;22.10;67.57;100791.31;5036903;28;20033;-83
2022/10/02 04:29:38;;;;;;;5.28;3.92;;;;;;;22.09;67.37;100786.88;5057605;28;20045;-83
2022/10/02 04:32:12;;;;;;;6.43;4.20;;;;;;;22.09;67.17;100784.19;5053634;28;20074;-82
2022/10/02 04:34:38;;;;;;;8.80;4.18;;;;;;;22.10;67.58;100793.09;5041848;28;20020;-82
2022/10/02 04:37:03;;;;;;;;;;;;;;;22.12;67.83;100797.53;5063956;28;20032;-82
2022/10/02 04:39:38;;;;;;;5.93;4.20;;;;;;;22.12;67.63;100794.88;5071956;28;19947;-87
2022/10/02 04:42:18;;;;;;;4.80;3.80;;;;;;;22.06;67.76;100794.84;5049618;28;20024;-82
2022/10/02 04:44:46;;;;;;;6.05;3.92;;;;;;;22.11;67.64;100803.72;5064519;28;20065;-81
2022/10/02 04:47:12;;;;;;;5.35;4.57;;;;;;;22.08;67.97;100798.41;5072591;28;20119;-81
2022/10/02 04:50:01;;;;;;;5.55;4.10;;;;;;;22.06;68.03;100801.94;5067823;28;20104;-82
2022/10/02 04:52:45;;;;;;;5.95;4.10;;;;;;;22.10;67.92;100825.91;5069925;28;20029;-82
2022/10/02 04:55:20;;;;;;;8.23;4.43;;;;;;;22.07;68.13;100846.25;5055417;28;20033;-82
2022/10/02 04:58:09;;;;;;;5.32;4.22;;;;;;;22.11;68.30;100866.66;5036479;28;20549;-82
2022/10/02 05:01:02;;;;;;;6.25;4.20;;;;;;;22.09;68.38;100879.94;5052535;28;20056;-82
2022/10/02 05:03:46;;;;;;;6.93;3.88;;;;;;;22.12;68.34;100881.75;5057143;28;20482;-82
2022/10/02 05:06:59;;;;;;;6.10;4.20;;;;;;;22.09;68.57;100876.41;5064895;28;20119;-82
2022/10/02 05:09:36;;;;;;;7.03;3.67;;;;;;;22.10;68.68;100860.47;4978779;28;20088;-82
2022/10/02 05:12:20;;;;;;;5.60;3.70;;;;;;;22.04;68.95;100863.06;4990251;28;20038;-83
2022/10/02 05:15:04;;;;;;;4.22;3.80;;;;;;;22.06;68.99;100848.03;4987403;28;20146;-82
2022/10/02 05:17:52;;;;;;;4.93;4.03;;;;;;;22.00;69.25;100829.34;4992949;28;20042;-82
2022/10/02 05:20:35;;;;;;;6.55;4.00;;;;;;;21.70;69.16;100767.06;5007989;28;20083;-83
2022/10/02 05:23:14;;;;;;;5.18;3.78;;;;;;;22.05;69.37;100822.28;4999280;28;20194;-84
2022/10/02 05:25:58;;;;;;;5.45;3.38;;;;;;;22.03;69.28;100829.34;5062672;28;20037;-83
2022/10/02 05:28:23;;;;;;;5.45;3.50;;;;;;;22.04;69.53;100815.22;5056283;28;20024;-83
2022/10/02 05:30:52;;;;;;;4.78;3.70;;;;;;;22.04;69.55;100809.00;5071874;28;20130;-81
2022/10/02 05:33:39;;;;;;;5.57;3.85;;;;;;;22.04;69.40;100801.91;5063140;28;20525;-80
2022/10/02 05:36:42;;;;;;;5.93;3.80;;;;;;;22.04;69.53;100801.03;5068773;28;20032;-81
2022/10/02 05:39:13;;;;;;;4.72;3.65;;;;;;;22.04;69.40;100809.88;5060611;28;20036;-81
2022/10/02 05:41:41;;;;;;;5.07;3.53;;;;;;;22.01;69.44;100806.31;5035110;28;20029;-81
2022/10/02 05:44:15;;;;;;;6.32;3.53;;;;;;;22.00;69.60;100804.53;5074144;28;20020;-80
2022/10/02 05:46:45;;;;;;;7.20;3.88;;;;;;;22.02;69.59;100797.47;5053006;28;20020;-81
2022/10/02 05:49:17;;;;;;;7.03;3.63;;;;;;;22.03;69.43;100794.78;5051240;28;20032;-81
2022/10/02 05:51:59;;;;;;;5.32;3.47;;;;;;;22.02;69.59;100805.44;5054093;28;20029;-81
2022/10/02 05:54:42;;;;;;;7.30;4.00;;;;;;;22.00;69.50;100801.88;5071264;28;20028;-82
2022/10/02 05:57:20;;;;;;;5.38;3.60;;;;;;;22.04;69.23;100807.22;5043391;28;20054;-81
2022/10/02 06:00:10;;;;;;;5.25;3.60;;;;;;;22.03;69.24;100818.72;5063666;28;20078;-82
2022/10/02 06:02:47;;;;;;;6.82;3.38;;;;;;;22.01;69.41;100816.94;5071032;28;20455;-81
2022/10/02 06:05:27;;;;;;;5.43;3.53;;;;;;;22.04;68.75;100812.53;5069115;28;20028;-82
2022/10/02 06:07:56;;;;;;;5.15;3.63;;;;;;;22.05;69.09;100805.44;5053379;28;20077;-82
2022/10/02 06:10:27;;;;;;;5.70;3.38;;;;;;;22.06;68.79;100800.16;5047942;28;20024;-81
2022/10/02 06:12:57;;;;;;;4.20;3.03;;;;;;;22.00;68.66;100788.59;5033889;28;20036;-81
2022/10/02 06:16:00;;;;;;;6.45;3.40;;;;;;;22.04;68.78;100787.72;5037756;28;20025;-82
2022/10/02 06:18:28;;;;;;;5.80;3.38;;;;;;;22.01;68.24;100790.34;5033204;28;20047;-82
2022/10/02 06:21:09;;;;;;;4.95;3.33;;;;;;;21.96;68.15;100774.38;5047430;28;20017;-82
2022/10/02 06:23:48;;;;;;;3.60;2.85;;;;;;;22.03;67.84;100799.22;5062891;28;20066;-82
2022/10/02 06:26:28;;;;;;;5.43;3.05;;;;;;;21.94;67.60;100784.09;5063645;28;20418;-82
2022/10/02 06:29:06;;;;;;;5.72;3.13;;;;;;;22.01;67.71;100798.31;5060997;28;20016;-81
2022/10/02 06:31:46;;;;;;;6.93;3.42;;;;;;;21.89;67.87;100778.75;5037522;28;20040;-83
2022/10/02 06:34:12;;;;;;;6.68;3.22;;;;;;;22.00;67.87;100797.44;5054947;28;20028;-81
2022/10/02 06:36:58;;;;;;;5.60;3.10;;;;;;;21.99;67.68;100808.94;5065257;28;20067;-81
2022/10/02 06:39:41;;;;;;;4.22;3.08;;;;;;;21.94;67.24;100797.38;5051653;28;20438;-81
2022/10/02 06:42:15;;;;;;;4.43;2.90;;;;;;;22.05;67.15;100806.34;5055433;28;20029;-82
2022/10/02 06:44:51;;;;;;;7.15;2.85;;;;;;;22.02;66.48;100803.66;5033183;28;20045;-82
2022/10/02 06:47:50;;;;;;;11.70;3.15;;;;;;;21.92;66.21;100799.16;5037680;28;20451;-82
2022/10/02 06:50:16;;;;;;;12.32;3.15;;;;;;;21.86;65.04;100812.38;5052440;28;20033;-82
2022/10/02 06:52:51;;;;;;;5.30;2.88;;;;;;;21.91;63.90;100816.00;5052114;28;20500;-82
2022/10/02 06:55:41;;;;;;;8.18;2.67;;;;;;;21.92;64.89;100818.63;5050408;28;20021;-81
2022/10/02 06:58:44;;;;;;;12.80;3.20;;;;;;;21.90;63.58;100823.06;5034607;28;20029;-81
2022/10/02 07:01:31;;;;;;;36.00;4.60;;;;;;;21.77;63.88;100822.94;5050844;28;20473;-82
2022/10/02 07:04:41;;;;;;;25.70;4.47;;;;;;;21.84;63.74;100823.00;5053056;28;20025;-82
2022/10/02 07:07:34;;;;;;;15.35;3.63;;;;;;;21.89;64.08;100831.94;5036679;28;20487;-82
2022/10/02 07:10:31;;;;;;;16.73;3.95;;;;;;;21.89;64.29;100823.94;5050141;28;20029;-82
2022/10/02 07:13:19;;;;;;;12.70;2.95;;;;;;;21.81;64.49;100787.53;5061770;28;20040;-82
2022/10/02 07:16:23;;;;;;;14.80;3.17;;;;;;;21.92;64.48;100826.63;5064329;28;20028;-82
2022/10/02 07:19:45;;;;;;;15.40;3.38;;;;;;;21.85;64.51;100829.22;5069839;28;20036;-82
2022/10/02 07:22:35;;;;;;;12.77;3.17;;;;;;;21.86;64.27;100834.53;4986050;28;20042;-82
2022/10/02 07:25:18;;;;;;;13.05;3.22;;;;;;;21.89;64.34;100812.44;4984488;28;20117;-82
2022/10/02 07:27:51;;;;;;;7.22;2.72;;;;;;;21.95;64.32;100812.47;5042696;28;20174;-83
2022/10/02 07:30:17;;;;;;;5.88;2.60;;;;;;;21.93;64.58;100808.91;5072029;28;20044;-83
2022/10/02 07:32:48;;;;;;;8.88;3.03;;;;;;;21.91;64.14;100811.56;5072812;28;20418;-83
2022/10/02 07:35:32;;;;;;;5.45;2.70;;;;;;;21.96;64.03;100815.13;5064122;28;20035;-83
2022/10/02 07:38:16;;;;;;;9.05;2.60;;;;;;;21.87;64.19;100827.47;5073210;28;20032;-84
2022/10/02 07:41:04;;;;;;;7.68;2.95;;;;;;;21.94;63.87;100834.63;5073194;28;20028;-82
2022/10/02 07:43:44;;;;;;;8.65;2.90;;;;;;;21.94;63.97;100832.84;5060213;28;20506;-84
2022/10/02 07:46:15;;;;;;;7.13;3.20;;;;;;;21.93;63.73;100827.53;5072041;28;20104;-82
2022/10/02 07:49:05;;;;;;;8.07;2.80;;;;;;;21.90;64.34;100836.34;5073087;28;20054;-81
2022/10/02 07:51:48;;;;;;;6.88;3.08;;;;;;;21.98;63.93;100847.06;5072545;28;20020;-81
2022/10/02 07:54:38;;;;;;;5.00;2.70;;;;;;;21.80;64.11;100836.25;5058154;28;20493;-82
2022/10/02 07:57:29;;;;;;;5.72;2.92;;;;;;;21.90;64.11;100852.31;5060910;28;20542;-82
2022/10/02 08:00:04;;;;;;;6.65;3.17;;;;;;;21.91;63.58;100846.13;5040423;28;20021;-82
2022/10/02 08:02:44;;;;;;;4.18;2.63;;;;;;;21.96;63.81;100859.44;5065262;28;20082;-82
2022/10/02 08:05:19;;;;;;;5.05;2.97;;;;;;;21.85;64.74;100851.38;5056311;28;20027;-81
2022/10/02 08:07:49;;;;;;;6.57;2.97;;;;;;;21.91;63.90;100850.56;5056155;28;20025;-83
2022/10/02 08:10:18;;;;;;;7.53;3.35;;;;;;;21.85;64.06;100839.88;5055984;28;20039;-83
2022/10/02 08:12:51;;;;;;;7.93;2.83;;;;;;;21.91;64.51;100843.47;5067242;28;20039;-82
2022/10/02 08:15:18;;;;;;;4.00;2.88;;;;;;;21.94;63.90;100845.25;5032809;28;20033;-83
2022/10/02 08:17:53;;;;;;;4.10;2.80;;;;;;;21.87;64.60;100840.78;5055448;28;20021;-83
2022/10/02 08:20:32;;;;;;;5.32;3.10;;;;;;;21.89;64.77;100841.69;5055820;28;20478;-83
2022/10/02 08:23:20;;;;;;;4.45;3.28;;;;;;;21.91;64.03;100837.25;5036325;28;20048;-83
2022/10/02 08:26:13;;;;;;;4.22;3.20;;;;;;;21.85;64.02;100826.56;5069070;28;20081;-82
2022/10/02 08:29:00;;;;;;;8.13;3.30;;;;;;;21.95;63.67;100839.06;5064504;28;20099;-83
2022/10/02 08:31:25;;;;;;;4.75;3.10;;;;;;;21.81;64.32;100830.97;5052192;28;20031;-82
2022/10/02 08:33:51;;;;;;;7.45;3.35;;;;;;;21.94;64.03;100832.84;5055965;28;20119;-82
2022/10/02 08:36:39;;;;;;;5.68;3.20;;;;;;;22.00;63.60;100833.78;5073118;28;20098;-82
2022/10/02 08:39:35;;;;;;;5.88;3.47;;;;;;;21.93;64.07;100832.84;5072280;28;20074;-82
2022/10/02 08:42:06;;;;;;;4.90;3.17;;;;;;;21.94;63.79;100819.53;5061315;28;20025;-82
2022/10/02 08:44:51;;;;;;;6.00;3.30;;;;;;;21.89;64.22;100836.34;5070855;28;20103;-82
2022/10/02 08:47:47;;;;;;;5.63;3.13;;;;;;;21.93;64.14;100833.72;5071244;28;20552;-83
2022/10/02 08:51:06;;;;;;;5.82;3.50;;;;;;;21.84;64.47;100836.28;5070759;28;20032;-83
2022/10/02 08:53:50;;;;;;;5.50;3.40;;;;;;;21.85;63.76;100829.22;4988596;28;20546;-83
2022/10/02 08:56:43;;;;;;;5.43;3.25;;;;;;;21.85;64.07;100826.56;5071542;28;20028;-82
2022/10/02 08:59:26;;;;;;;3.50;2.97;;;;;;;21.79;63.63;100848.66;5063112;28;20032;-82
2022/10/02 09:02:10;;;;;;;5.07;3.20;;;;;;;21.80;63.77;100842.50;5059612;28;20416;-82
2022/10/02 09:04:53;;;;;;;3.45;2.90;;;;;;;21.82;63.68;100851.34;5072286;28;20610;-82
2022/10/02 09:08:02;;;;;;;4.85;3.13;;;;;;;21.78;63.95;100836.25;5052213;28;20058;-82
2022/10/02 09:11:03;;;;;;;7.03;3.25;;;;;;;22.00;62.33;100852.41;5040198;28;20060;-82
2022/10/02 09:13:47;;;;;;;5.30;3.10;;;;;;;21.90;62.26;100864.72;5054293;28;20500;-83
2022/10/02 09:16:18;;;;;;;6.50;3.20;;;;;;;21.88;62.91;100855.84;5072032;28;20032;-82
2022/10/02 09:18:50;;;;;;;4.70;2.85;;;;;;;21.90;62.37;100862.94;5071590;28;20040;-82
2022/10/02 09:21:37;;;;;;;5.18;2.67;;;;;;;21.64;63.25;100820.19;5079804;28;20123;-83
2022/10/02 09:24:31;;;;;;;3.13;2.80;;;;;;;21.89;63.03;100876.25;5081486;28;20062;-82
2022/10/02 09:27:19;;;;;;;4.25;2.80;;;;;;;21.86;63.74;100870.88;5072163;28;20128;-83
2022/10/02 09:30:06;;;;;;;4.43;2.80;;;;;;;21.92;64.01;100862.97;5057547;28;20044;-81
2022/10/02 09:32:35;;;;;;;4.85;2.95;;;;;;;21.89;63.42;100863.81;5071499;28;20033;-82
2022/10/02 09:35:09;;;;;;;4.28;3.00;;;;;;;21.88;63.76;100872.66;5059797;28;20024;-82
2022/10/02 09:38:05;;;;;;;3.28;2.70;;;;;;;21.87;64.03;100865.59;5072028;28;20086;-82
2022/10/02 09:41:03;;;;;;;5.22;2.80;;;;;;;21.78;63.33;100864.59;5071916;28;20016;-83
2022/10/02 09:43:48;;;;;;;3.22;2.92;;;;;;;21.75;62.93;100861.03;5059686;28;20548;-82
2022/10/02 09:46:18;;;;;;;3.45;2.55;;;;;;;21.87;62.74;100894.81;5054824;28;20027;-81
2022/10/02 09:48:59;;;;;;;5.22;2.88;;;;;;;21.91;63.44;100888.66;5071608;28;20020;-82
2022/10/02 09:51:54;;;;;;;2.85;2.50;;;;;;;21.83;63.49;100869.09;5059079;28;20482;-83
2022/10/02 09:54:48;;;;;;;3.22;2.80;;;;;;;21.90;63.28;100878.00;5071486;28;20563;-82
2022/10/02 09:57:35;;;;;;;3.10;2.50;;;;;;;21.94;63.36;100895.78;5029447;28;20039;-82
2022/10/02 10:00:15;;;;;;;3.72;2.75;;;;;;;21.91;63.87;100893.97;5071332;28;20017;-82
2022/10/02 10:03:12;;;;;;;3.00;2.70;;;;;;;21.92;63.61;100894.88;5071551;28;20025;-82
2022/10/02 10:06:14;;;;;;;3.72;2.85;;;;;;;21.89;62.91;100900.16;5059548;28;20573;-82
2022/10/02 10:09:10;;;;;;;4.78;2.45;;;;;;;21.90;62.51;100910.78;5071011;28;20028;-83
2022/10/02 10:11:51;;;;;;;2.67;2.30;;;;;;;21.90;61.62;100915.22;5071309;28;20525;-83
2022/10/02 10:14:20;;;;;;;3.05;2.30;;;;;;;21.91;62.63;100896.63;5071095;28;20027;-82
2022/10/02 10:17:38;;;;;;;3.53;2.25;;;;;;;21.91;62.55;100896.63;5071228;28;20428;-82
2022/10/02 10:20:26;;;;;;;3.95;2.25;;;;;;;21.90;61.94;100899.28;5005415;28;20040;-82
2022/10/02 10:23:19;;;;;;;4.78;2.55;;;;;;;21.92;62.46;100910.81;5017550;28;20036;-82
2022/10/02 10:25:53;;;;;;;3.35;2.58;;;;;;;21.93;61.73;100902.88;5070379;28;20503;-83
2022/10/02 10:28:54;;;;;;;2.10;1.95;;;;;;;21.83;62.54;100884.16;5047995;28;20410;-84
2022/10/02 10:31:22;;;;;;;3.17;2.20;;;;;;;21.91;61.45;100915.25;5070694;28;20387;-83
2022/10/02 10:34:11;;;;;;;3.65;2.30;;;;;;;21.94;62.21;100909.94;5061915;28;20524;-82
2022/10/02 10:40:09;;;;;;;2.28;2.08;;;;;;;21.94;62.25;100923.25;5058617;28;20035;-82
2022/10/02 10:42:55;;;;;;;2.58;1.98;;;;;;;21.96;63.18;100913.50;5063823;28;20019;-82
2022/10/02 10:45:42;;;;;;;3.15;1.88;;;;;;;21.95;61.55;100917.06;5056571;28;20020;-82
2022/10/02 10:48:37;;;;;;;;;;;;;;;21.95;61.77;100921.50;5070965;28;20563;-82
2022/10/02 10:51:24;;;;;;;3.35;2.15;;;;;;;21.93;62.34;100917.94;5010315;28;20005;-83
2022/10/02 10:54:54;;;;;;;2.08;1.73;;;;;;;21.91;61.67;100927.66;5065866;28;20406;-83
2022/10/02 10:57:41;;;;;;;2.85;2.05;;;;;;;21.95;61.17;100924.16;5008829;28;20083;-82
2022/10/02 11:00:32;;;;;;;3.58;1.90;;;;;;;21.90;62.17;100924.09;5067475;28;20029;-81
2022/10/02 11:03:16;;;;;;;13.38;2.95;;;;;;;21.95;60.41;100941.00;5068017;28;20085;-84
2022/10/02 11:06:12;;;;;;;12.18;2.40;;;;;;;21.92;60.50;100935.63;5069583;28;20016;-82
2022/10/02 11:08:59;;;;;;;12.13;2.75;;;;;;;21.98;61.84;100949.88;5074319;28;20048;-82
2022/10/02 11:11:32;;;;;;;6.97;1.92;;;;;;;21.94;60.79;100947.19;5074250;28;20108;-82
2022/10/02 11:14:34;;;;;;;8.40;1.98;;;;;;;21.98;61.34;100949.88;5059233;28;20500;-85
2022/10/02 11:17:13;;;;;;;7.53;2.00;;;;;;;22.00;61.99;100954.34;5043186;28;20021;-86
2022/10/02 11:19:40;;;;;;;8.70;2.38;;;;;;;21.95;59.23;100935.69;5053590;28;20035;-85
2022/10/02 11:22:27;;;;;;;9.50;2.28;;;;;;;22.01;60.68;100960.53;5064536;28;20131;-86
2022/10/02 11:25:08;;;;;;;;;;;;;;;22.00;59.66;100937.50;5063769;28;20490;-85
2022/10/02 11:27:57;;;;;;;11.20;1.90;;;;;;;22.05;61.41;100951.72;5074377;28;19918;-86
2022/10/02 11:30:24;;;;;;;12.45;2.10;;;;;;;22.13;61.10;100955.34;5056737;28;20115;-86
2022/10/02 11:33:09;;;;;;;8.70;1.73;;;;;;;22.08;58.66;100947.31;5044943;28;20020;-85
2022/10/02 11:35:59;;;;;;;14.30;2.10;;;;;;;22.10;58.73;100965.97;5055433;28;20039;-85
2022/10/02 11:38:44;;;;;;;8.65;2.40;;;;;;;22.12;60.21;100965.09;5055122;28;20024;-86
2022/10/02 11:41:22;;;;;;;8.32;2.03;;;;;;;22.05;60.99;100954.38;5055326;28;20083;-86
2022/10/02 11:44:07;;;;;;;6.13;1.70;;;;;;;22.13;59.50;100971.31;5056434;28;20020;-86
2022/10/02 11:46:51;;;;;;;6.28;2.30;;;;;;;22.17;59.54;100974.00;5055779;28;20047;-85
2022/10/02 11:49:26;;;;;;;6.55;1.67;;;;;;;22.20;60.10;100982.91;5074027;28;20029;-86
2022/10/02 11:52:36;;;;;;;6.85;1.80;;;;;;;22.21;60.48;100984.69;5074089;28;20028;-86
2022/10/02 11:55:05;;;;;;;7.85;1.73;;;;;;;22.13;60.19;100965.97;5041419;28;20040;-85
2022/10/02 11:57:55;;;;;;;6.75;1.65;;;;;;;22.18;59.45;100982.88;5061058;28;20067;-86
2022/10/02 12:00:44;;;;;;;5.80;1.77;;;;;;;22.21;59.54;100982.91;5031328;28;20032;-85
2022/10/02 12:03:24;;;;;;;4.30;1.23;;;;;;;22.28;60.46;100982.13;5069655;28;20020;-85
2022/10/02 12:06:03;;;;;;;6.13;1.30;;;;;;;22.14;60.26;100973.09;5073565;28;20032;-84
2022/10/02 12:08:48;;;;;;;4.85;1.40;;;;;;;22.30;60.09;100992.78;5055395;28;20138;-85
2022/10/02 12:11:47;;;;;;;4.43;1.25;;;;;;;22.30;60.26;100998.09;5053464;28;20471;-85
2022/10/02 12:14:24;;;;;;;5.03;1.38;;;;;;;22.28;59.52;100994.53;5064198;28;20111;-86
2022/10/02 12:16:56;;;;;;;2.58;1.55;;;;;;;22.34;59.45;100997.25;5038853;28;20447;-86
2022/10/02 12:19:39;;;;;;;3.22;1.40;;;;;;;22.33;58.93;100988.38;5069804;28;20048;-86
2022/10/02 12:28:35;;;;;;;2.67;1.40;;;;;;;22.34;58.98;100994.59;5052880;28;20032;-86
2022/10/02 12:31:14;;;;;;;2.03;1.10;;;;;;;22.16;58.72;100976.63;5054078;28;20064;-84
2022/10/02 12:33:44;;;;;;;2.45;1.00;;;;;;;22.36;59.38;101001.72;5048080;28;20028;-85